Time;durP1;ratioP1;P1;durP2;ratioP2;P2;SDS_P1;SDS_P2;PMS_P1;PMS_P2;Temp;Humidity;BMP_temperature;BMP_pressure;BME280_temperature;BME280_humidity;BME280_pressure;Samples;Min_cycle;Max_cycle;Signal;HPM_P1;HPM_P2
2023/06/16 00:01:31;;;;;;;3.65;1.95;;;;;;;15.10;48.02;100051.88;10513089;28;20079;-61
2023/06/16 00:06:33;;;;;;;4.18;2.08;;;;;;;14.93;48.33;100045.25;10510521;28;21010;-61
2023/06/16 00:11:35;;;;;;;4.30;2.08;;;;;;;14.91;48.32;100051.59;10509910;28;20072;-61
2023/06/16 00:16:37;;;;;;;4.57;2.03;;;;;;;14.94;48.01;100052.19;10511068;28;20777;-61
2023/06/16 00:21:41;;;;;;;6.28;1.90;;;;;;;14.79;48.24;100045.47;10511529;28;20044;-61
2023/06/16 00:26:43;;;;;;;3.67;2.20;;;;;;;14.74;48.49;100052.00;10511532;28;20066;-61
2023/06/16 00:31:45;;;;;;;3.90;2.17;;;;;;;14.72;48.36;100053.91;10510855;28;20462;-61
2023/06/16 00:36:47;;;;;;;4.55;2.10;;;;;;;14.73;48.61;100050.34;10491931;28;20071;-61
2023/06/16 00:41:50;;;;;;;3.78;1.90;;;;;;;14.69;48.80;100054.16;10509921;28;20051;-61
2023/06/16 00:46:52;;;;;;;3.75;2.30;;;;;;;14.59;48.99;100051.38;10474210;28;20055;-61
2023/06/16 00:51:55;;;;;;;3.30;1.95;;;;;;;14.40;49.15;100051.03;10475844;28;20387;-61
2023/06/16 00:56:58;;;;;;;2.88;1.63;;;;;;;14.28;49.41;100063.28;10475622;28;20495;-61
2023/06/16 01:02:01;;;;;;;5.28;1.92;;;;;;;14.28;49.59;100057.19;10490444;28;20152;-60
2023/06/16 01:07:14;;;;;;;5.47;2.03;;;;;;;14.20;50.64;100059.53;10490864;28;20404;-60
2023/06/16 01:12:28;;;;;;;5.07;2.10;;;;;;;14.09;50.79;100055.03;10509217;28;20477;-61
2023/06/16 01:17:33;;;;;;;3.10;2.00;;;;;;;13.98;50.41;100055.00;10474596;28;20056;-60
2023/06/16 01:22:38;;;;;;;4.03;2.20;;;;;;;13.92;50.73;100055.44;10507925;28;20079;-60
2023/06/16 01:27:47;;;;;;;3.53;2.05;;;;;;;13.81;50.72;100063.22;10509953;28;20067;-60
2023/06/16 01:32:53;;;;;;;5.20;2.15;;;;;;;13.86;50.67;100052.41;10477809;28;20043;-60
2023/06/16 01:37:57;;;;;;;3.67;2.20;;;;;;;13.76;50.80;100049.56;10458268;28;20576;-60
2023/06/16 01:43:00;;;;;;;3.80;2.00;;;;;;;13.58;51.19;100049.06;10488956;28;20048;-60
2023/06/16 01:48:05;;;;;;;4.07;2.33;;;;;;;13.35;51.55;100054.22;10491467;28;20055;-60
2023/06/16 01:53:08;;;;;;;3.72;2.10;;;;;;;12.59;52.61;100059.41;10474537;28;20429;-60
2023/06/16 01:58:10;;;;;;;3.58;1.98;;;;;;;12.82;52.56;100055.25;10506628;28;20872;-60
2023/06/16 02:03:19;;;;;;;4.20;2.00;;;;;;;13.14;52.77;100051.28;10476826;28;20043;-60
2023/06/16 02:08:25;;;;;;;4.18;1.90;;;;;;;13.26;52.05;100049.59;10497242;28;20415;-60
2023/06/16 02:13:27;;;;;;;3.80;2.10;;;;;;;13.08;52.31;100046.47;10494180;28;20393;-60
2023/06/16 02:18:32;;;;;;;4.38;2.20;;;;;;;12.94;52.60;100050.00;10514111;28;20040;-59
2023/06/16 02:23:34;;;;;;;3.70;2.05;;;;;;;12.66;53.17;100052.78;10513921;28;20121;-60
2023/06/16 02:28:36;;;;;;;4.78;1.92;;;;;;;12.90;52.95;100051.16;10514206;28;20097;-60
2023/06/16 02:33:40;;;;;;;3.47;2.10;;;;;;;12.98;52.73;100057.69;10478570;28;20044;-59
2023/06/16 02:38:42;;;;;;;4.47;2.10;;;;;;;12.86;53.11;100056.72;10497211;28;20040;-59
2023/06/16 02:43:44;;;;;;;4.22;2.00;;;;;;;12.90;53.11;100061.66;10521640;28;20052;-59
2023/06/16 02:48:46;;;;;;;5.88;2.40;;;;;;;12.41;53.27;100054.53;10487391;28;20048;-59
2023/06/16 02:53:49;;;;;;;5.72;2.20;;;;;;;12.19;53.98;100067.31;10486291;28;20143;-60
2023/06/16 02:58:52;;;;;;;2.88;2.03;;;;;;;12.14;54.09;100072.84;10501719;28;20043;-60
2023/06/16 03:03:56;;;;;;;3.47;2.00;;;;;;;12.28;54.02;100064.97;10483214;28;20048;-59
2023/06/16 03:09:12;;;;;;;3.72;2.00;;;;;;;12.45;53.85;100062.09;10496947;28;20162;-59
2023/06/16 03:14:14;;;;;;;8.75;2.95;;;;;;;12.57;53.58;100066.53;10492296;28;20052;-60
2023/06/16 03:19:18;;;;;;;3.03;1.98;;;;;;;12.61;53.80;100068.00;10496155;28;20448;-60
2023/06/16 03:24:20;;;;;;;7.60;2.08;;;;;;;12.49;53.95;100067.97;10512019;28;20044;-59
2023/06/16 03:29:22;;;;;;;3.95;2.08;;;;;;;12.43;54.14;100073.63;10495867;28;20076;-59
2023/06/16 03:34:25;;;;;;;4.55;2.17;;;;;;;12.29;54.24;100065.81;10493101;28;20138;-59
2023/06/16 03:39:31;;;;;;;4.68;2.20;;;;;;;12.26;54.37;100074.66;10495041;28;20067;-60
2023/06/16 03:44:33;;;;;;;3.70;2.17;;;;;;;12.40;54.12;100068.56;10494556;28;20044;-60
2023/06/16 03:49:35;;;;;;;3.30;2.00;;;;;;;12.46;53.93;100071.63;10483039;28;20101;-59
2023/06/16 03:54:37;;;;;;;3.65;2.40;;;;;;;12.53;53.75;100078.16;10526736;28;20066;-59
2023/06/16 03:59:40;;;;;;;5.00;2.45;;;;;;;12.66;53.70;100081.66;10528189;28;20138;-60
2023/06/16 04:04:45;;;;;;;4.78;2.20;;;;;;;12.76;53.36;100080.09;10493576;28;20055;-60
2023/06/16 04:09:48;;;;;;;3.83;2.13;;;;;;;13.19;53.04;100083.31;10478158;28;20055;-59
2023/06/16 04:14:50;;;;;;;3.83;2.20;;;;;;;14.63;51.03;100081.78;10510702;28;20147;-60
2023/06/16 04:19:53;;;;;;;3.50;2.00;;;;;;;16.41;47.65;100064.25;10476453;28;20059;-60
2023/06/16 04:24:55;;;;;;;3.97;2.20;;;;;;;17.87;45.31;100072.91;10511275;28;20044;-60
2023/06/16 04:29:58;;;;;;;4.25;2.22;;;;;;;19.25;43.24;100067.31;10476839;28;20113;-60
2023/06/16 04:35:03;;;;;;;3.20;2.03;;;;;;;20.20;41.56;100067.88;10508470;28;20040;-60
2023/06/16 04:40:08;;;;;;;4.00;2.17;;;;;;;21.03;39.99;100055.06;10492892;28;20051;-60
2023/06/16 04:45:11;;;;;;;3.92;2.28;;;;;;;22.16;38.17;100053.03;10475923;28;20055;-60
2023/06/16 04:50:17;;;;;;;3.72;2.05;;;;;;;23.38;36.65;100044.06;10491338;28;20044;-61
2023/06/16 04:55:20;;;;;;;5.40;2.10;;;;;;;23.81;35.50;100037.44;10472133;28;20048;-60
2023/06/16 05:00:23;;;;;;;2.92;1.92;;;;;;;24.66;34.41;100041.78;10491550;28;20047;-60
2023/06/16 05:05:24;;;;;;;3.10;1.88;;;;;;;25.07;33.22;100035.94;10491775;28;20124;-60
2023/06/16 05:10:26;;;;;;;3.33;1.83;;;;;;;25.43;32.61;100030.72;10509697;28;20044;-61
2023/06/16 05:15:28;;;;;;;3.33;1.90;;;;;;;26.31;31.32;100023.41;10507187;28;20052;-60
2023/06/16 05:20:32;;;;;;;2.42;1.65;;;;;;;26.58;30.65;100029.91;10491376;28;20048;-60
2023/06/16 05:25:34;;;;;;;3.67;2.10;;;;;;;26.82;30.25;100017.94;10489975;28;20043;-61
2023/06/16 05:30:39;;;;;;;3.70;1.98;;;;;;;25.97;30.05;100027.75;10489635;28;20081;-61
2023/06/16 05:35:41;;;;;;;3.10;1.85;;;;;;;23.63;32.16;100031.50;10488634;28;20048;-60
2023/06/16 05:40:44;;;;;;;3.08;1.63;;;;;;;21.71;34.34;100044.50;10490751;28;20101;-61
2023/06/16 05:45:46;;;;;;;3.70;2.00;;;;;;;20.83;35.84;100048.25;10488754;28;20051;-61
2023/06/16 05:50:48;;;;;;;3.80;2.00;;;;;;;20.38;36.61;100051.97;10489375;28;20047;-60
2023/06/16 05:55:50;;;;;;;3.20;1.95;;;;;;;19.63;37.72;100055.72;10489845;28;20044;-60
2023/06/16 06:00:52;;;;;;;3.78;2.08;;;;;;;19.64;38.02;100057.41;10524213;28;20373;-60
2023/06/16 06:05:56;;;;;;;4.55;2.20;;;;;;;19.82;37.99;100054.81;10505766;28;20124;-61
2023/06/16 06:11:01;;;;;;;7.65;2.10;;;;;;;20.00;38.21;100063.66;10517436;28;20516;-61
2023/06/16 06:16:03;;;;;;;3.47;1.90;;;;;;;19.99;38.38;100056.72;10476268;28;20044;-61
2023/06/16 06:21:06;;;;;;;4.15;2.08;;;;;;;20.12;38.10;100063.31;10525240;28;20176;-61
2023/06/16 06:26:08;;;;;;;3.63;1.98;;;;;;;19.95;38.01;100076.56;10510786;28;20484;-61
2023/06/16 06:31:10;;;;;;;3.90;2.20;;;;;;;20.45;38.00;100068.97;10491082;28;20048;-61
2023/06/16 06:36:25;;;;;;;4.22;2.05;;;;;;;20.96;37.75;100077.09;10462052;28;20156;-61
2023/06/16 06:41:28;;;;;;;3.38;1.92;;;;;;;21.74;36.67;100076.16;10489076;28;20967;-61
2023/06/16 06:46:37;;;;;;;3.58;1.73;;;;;;;22.82;36.03;100074.28;10490155;28;20044;-61
2023/06/16 06:51:40;;;;;;;4.03;2.08;;;;;;;23.77;34.84;100081.53;10488408;28;20040;-61
2023/06/16 06:56:42;;;;;;;4.20;2.10;;;;;;;25.20;33.89;100069.28;10511814;28;20044;-61
2023/06/16 07:01:43;;;;;;;2.83;1.80;;;;;;;26.89;32.29;100067.97;10504478;28;20040;-61
2023/06/16 07:06:46;;;;;;;4.55;1.77;;;;;;;28.40;30.51;100068.94;10505030;28;20040;-61
2023/06/16 07:11:48;;;;;;;3.83;1.80;;;;;;;29.26;29.12;100071.50;10502824;28;20125;-61
2023/06/16 07:16:52;;;;;;;3.53;1.60;;;;;;;29.60;28.10;100073.94;10506960;28;20446;-61
2023/06/16 07:21:55;;;;;;;5.28;2.00;;;;;;;30.28;27.69;100077.88;10508376;28;20127;-61
2023/06/16 07:26:59;;;;;;;4.32;2.10;;;;;;;31.10;26.76;100075.09;10472675;28;20696;-61
2023/06/16 07:32:02;;;;;;;2.78;1.73;;;;;;;31.19;25.73;100070.25;10507462;28;20063;-62
2023/06/16 07:37:04;;;;;;;3.75;2.00;;;;;;;30.68;25.02;100065.81;10508100;28;20127;-62
2023/06/16 07:42:06;;;;;;;3.03;1.80;;;;;;;31.07;24.86;100072.81;10507679;28;20055;-62
2023/06/16 07:47:08;;;;;;;2.97;1.88;;;;;;;31.42;24.04;100065.84;10486201;28;20117;-62
2023/06/16 07:52:13;;;;;;;2.55;1.58;;;;;;;31.38;23.54;100061.09;10509961;28;20138;-62
2023/06/16 07:57:18;;;;;;;3.58;1.80;;;;;;;30.98;22.66;100063.38;10511453;28;20510;-62
2023/06/16 08:02:20;;;;;;;3.03;1.70;;;;;;;30.60;23.12;100059.84;10509520;28;20047;-63
2023/06/16 08:07:22;;;;;;;3.58;1.70;;;;;;;30.52;23.94;100063.66;10508364;28;21188;-63
2023/06/16 08:12:24;;;;;;;3.67;2.00;;;;;;;30.25;23.76;100059.44;10463724;28;20388;-63
2023/06/16 08:17:27;;;;;;;2.25;1.42;;;;;;;31.11;23.08;100049.72;10516698;28;20053;-63
2023/06/16 08:22:29;;;;;;;4.40;1.77;;;;;;;29.96;22.93;100056.44;10496993;28;20649;-63
2023/06/16 08:27:30;;;;;;;4.22;1.60;;;;;;;29.70;22.82;100043.88;10497271;28;20127;-63
2023/06/16 08:32:32;;;;;;;2.50;1.60;;;;;;;29.79;22.79;100039.88;10480491;28;20072;-63
2023/06/16 08:37:34;;;;;;;3.05;1.63;;;;;;;30.03;22.53;100035.69;10496469;28;20043;-63
2023/06/16 08:42:38;;;;;;;2.20;1.45;;;;;;;30.46;22.14;100032.13;10501099;28;20112;-64
2023/06/16 08:47:42;;;;;;;5.15;1.70;;;;;;;29.62;22.73;100038.72;10507379;28;20122;-63
2023/06/16 08:52:47;;;;;;;3.22;1.70;;;;;;;29.69;23.07;100037.66;10508254;28;20047;-63
2023/06/16 08:57:51;;;;;;;3.63;1.85;;;;;;;29.44;22.75;100027.78;10471859;28;20626;-63
2023/06/16 09:02:56;;;;;;;2.70;1.63;;;;;;;30.10;22.50;100029.22;10505422;28;20396;-63
2023/06/16 09:08:01;;;;;;;4.13;1.70;;;;;;;30.34;22.08;100014.13;10502473;28;20569;-63
2023/06/16 09:13:07;;;;;;;2.97;1.70;;;;;;;29.89;21.26;100018.69;10506044;28;20052;-63
2023/06/16 09:18:09;;;;;;;3.45;1.65;;;;;;;30.48;22.42;100016.56;10503354;28;20411;-63
2023/06/16 09:23:11;;;;;;;2.70;1.70;;;;;;;30.52;22.12;100015.06;10504800;28;20035;-63
2023/06/16 09:28:13;;;;;;;2.47;1.63;;;;;;;29.64;22.60;100013.19;10502551;28;20117;-65
2023/06/16 09:33:15;;;;;;;5.15;1.75;;;;;;;29.73;22.36;100016.47;10470433;28;20044;-64
2023/06/16 09:38:17;;;;;;;2.65;1.70;;;;;;;29.47;22.62;100011.19;10502325;28;20123;-65
2023/06/16 09:43:19;;;;;;;5.47;1.75;;;;;;;29.05;22.84;100007.09;10506591;28;20063;-64
2023/06/16 09:48:21;;;;;;;8.20;2.00;;;;;;;30.22;22.31;99992.41;10510925;28;20135;-65
2023/06/16 09:53:26;;;;;;;2.83;1.73;;;;;;;29.57;22.42;99998.09;10513770;28;20048;-65
2023/06/16 09:58:27;;;;;;;2.50;1.50;;;;;;;29.97;22.49;99986.09;10509300;28;20825;-65
2023/06/16 10:03:47;;;;;;;3.40;1.90;;;;;;;30.70;22.40;99984.63;10512766;28;20426;-65
2023/06/16 10:08:51;;;;;;;2.72;1.70;;;;;;;30.74;22.03;99975.03;10491926;28;20050;-64
2023/06/16 10:14:01;;;;;;;2.63;1.60;;;;;;;30.71;21.31;99972.75;10511764;28;20083;-65
2023/06/16 10:19:05;;;;;;;2.75;1.52;;;;;;;30.01;21.25;99973.84;10507641;28;20065;-64
2023/06/16 10:24:07;;;;;;;5.38;1.55;;;;;;;29.77;22.02;99971.88;10511715;28;20054;-64
2023/06/16 10:29:16;;;;;;;3.42;1.88;;;;;;;29.46;21.47;99969.91;10512218;28;20036;-65
2023/06/16 10:34:19;;;;;;;3.10;1.60;;;;;;;29.98;21.61;99963.50;10512867;28;20067;-64
2023/06/16 10:39:21;;;;;;;2.45;1.30;;;;;;;29.19;20.99;99967.50;10507569;28;20412;-65
2023/06/16 10:44:26;;;;;;;3.22;1.67;;;;;;;28.65;20.86;99960.47;10511529;28;20056;-66
2023/06/16 10:49:27;;;;;;;2.35;1.58;;;;;;;28.57;22.04;99955.31;10489572;28;20268;-66
2023/06/16 10:54:32;;;;;;;3.65;1.75;;;;;;;28.54;22.14;99954.91;10487735;28;20562;-65
2023/06/16 11:00:11;;;;;;;2.67;1.55;;;;;;;27.80;21.91;99957.63;10504076;28;20127;-65
2023/06/16 11:05:14;;;;;;;2.60;1.50;;;;;;;27.77;22.01;99959.91;10483935;28;20423;-61
2023/06/16 11:10:18;;;;;;;4.10;1.83;;;;;;;27.73;21.87;99950.59;10507249;28;20606;-61
2023/06/16 11:15:21;;;;;;;2.70;1.58;;;;;;;27.82;22.43;99947.50;10507158;28;20496;-61
2023/06/16 11:20:23;;;;;;;2.97;1.70;;;;;;;28.13;22.23;99946.97;10505798;28;20074;-61
2023/06/16 11:25:25;;;;;;;2.97;1.70;;;;;;;28.27;22.11;99941.41;10486844;28;20457;-61
2023/06/16 11:30:29;;;;;;;2.53;1.60;;;;;;;28.21;22.18;99938.69;10502593;28;20058;-61
2023/06/16 11:35:31;;;;;;;2.92;1.63;;;;;;;28.33;21.85;99939.78;10503780;28;20698;-61
2023/06/16 11:40:35;;;;;;;2.60;1.50;;;;;;;28.64;21.77;99931.94;10485766;28;20606;-62
2023/06/16 11:45:37;;;;;;;2.75;1.80;;;;;;;28.98;21.80;99929.00;10499041;28;20162;-62
2023/06/16 11:50:40;;;;;;;2.53;1.55;;;;;;;28.93;22.04;99925.31;10501010;28;20040;-62
2023/06/16 11:55:49;;;;;;;2.80;1.80;;;;;;;27.55;22.54;99924.22;10495326;28;20123;-61
2023/06/16 12:00:53;;;;;;;3.92;1.77;;;;;;;26.94;23.46;99930.47;10501462;28;20213;-61
2023/06/16 12:05:56;;;;;;;2.72;1.70;;;;;;;26.95;23.20;99927.63;10503455;28;20060;-61
2023/06/16 12:10:59;;;;;;;4.05;1.55;;;;;;;27.07;23.63;99922.53;10506918;28;20162;-61
2023/06/16 12:16:03;;;;;;;2.97;1.80;;;;;;;26.89;23.73;99924.88;10486789;28;20052;-61
2023/06/16 12:21:22;;;;;;;3.20;1.90;;;;;;;27.93;23.13;99911.97;10508401;28;20430;-62
2023/06/16 12:26:32;;;;;;;3.00;1.80;;;;;;;28.30;22.29;99899.03;10485293;28;20048;-62
2023/06/16 12:31:35;;;;;;;2.55;1.70;;;;;;;28.33;23.04;99901.28;10508372;28;20564;-61
2023/06/16 12:36:40;;;;;;;2.97;1.58;;;;;;;28.92;22.22;99897.53;10497515;28;20048;-62
2023/06/16 12:41:54;;;;;;;3.15;1.70;;;;;;;28.83;21.94;99893.38;10504933;28;20051;-62
2023/06/16 12:46:56;;;;;;;2.88;1.70;;;;;;;28.65;22.69;99890.50;10485367;28;20615;-62
2023/06/16 12:51:57;;;;;;;2.58;1.60;;;;;;;28.44;22.85;99893.41;10504619;28;20297;-61
2023/06/16 12:57:00;;;;;;;3.88;1.90;;;;;;;29.16;21.87;99889.78;10467606;28;20069;-62
2023/06/16 13:02:03;;;;;;;2.58;1.63;;;;;;;29.19;21.53;99886.69;10504182;28;20162;-62
2023/06/16 13:07:06;;;;;;;2.85;1.63;;;;;;;29.05;21.62;99869.75;10501388;28;20048;-62
2023/06/16 13:12:08;;;;;;;6.15;1.60;;;;;;;28.56;22.18;99885.56;10487702;28;20044;-62
2023/06/16 13:17:10;;;;;;;3.13;1.65;;;;;;;28.81;22.25;99883.84;10484133;28;20052;-62
2023/06/16 13:22:12;;;;;;;2.92;1.77;;;;;;;29.30;21.74;99878.75;10503978;28;20468;-63
2023/06/16 13:27:14;;;;;;;3.72;2.20;;;;;;;29.67;21.12;99863.69;10498911;28;20113;-62
2023/06/16 13:32:23;;;;;;;2.60;1.60;;;;;;;29.80;20.69;99867.13;10505343;28;20044;-62
2023/06/16 13:37:30;;;;;;;2.85;1.85;;;;;;;29.39;20.94;99866.75;10500789;28;20121;-63
2023/06/16 13:42:35;;;;;;;3.33;1.80;;;;;;;29.65;20.70;99855.81;10506363;28;20048;-63
2023/06/16 13:47:37;;;;;;;3.38;1.70;;;;;;;29.33;20.88;99861.34;10503861;28;20074;-63
2023/06/16 13:52:38;;;;;;;2.42;1.52;;;;;;;29.37;20.64;99852.63;10505991;28;20503;-63
2023/06/16 13:57:40;;;;;;;2.95;1.67;;;;;;;29.48;20.98;99849.28;10501919;28;20101;-63
2023/06/16 14:02:42;;;;;;;2.83;1.60;;;;;;;29.96;20.43;99844.22;10503290;28;20377;-63
2023/06/16 14:07:44;;;;;;;3.53;1.55;;;;;;;30.02;20.59;99829.88;10486051;28;20045;-63
2023/06/16 14:12:46;;;;;;;4.60;1.85;;;;;;;29.87;20.72;99832.84;10520480;28;20572;-63
2023/06/16 14:17:47;;;;;;;5.50;1.60;;;;;;;28.97;20.86;99846.56;10503508;28;20240;-63
2023/06/16 14:22:49;;;;;;;2.63;1.65;;;;;;;28.94;21.38;99833.53;10504555;28;20140;-63
2023/06/16 14:27:51;;;;;;;2.95;1.80;;;;;;;28.38;22.03;99839.63;10499148;28;20102;-63
2023/06/16 14:32:53;;;;;;;2.92;1.75;;;;;;;28.01;22.73;99841.06;10494432;28;20421;-63
2023/06/16 14:37:55;;;;;;;2.90;1.55;;;;;;;28.00;22.52;99831.31;10511331;28;20130;-63
2023/06/16 14:42:56;;;;;;;3.47;1.70;;;;;;;27.60;23.04;99830.44;10512458;28;20137;-63
2023/06/16 14:47:58;;;;;;;2.78;1.60;;;;;;;27.85;23.03;99822.66;10505625;28;20036;-62
2023/06/16 14:53:00;;;;;;;2.90;1.70;;;;;;;27.99;22.18;99824.31;10513550;28;21099;-63
2023/06/16 14:58:02;;;;;;;3.55;1.80;;;;;;;27.99;22.17;99824.31;10511211;28;20600;-63
2023/06/16 15:03:04;;;;;;;2.78;1.50;;;;;;;28.37;21.67;99827.22;10491516;28;20072;-63
2023/06/16 15:08:06;;;;;;;4.78;1.80;;;;;;;28.62;20.92;99814.75;10522441;28;20702;-63
2023/06/16 15:13:08;;;;;;;3.35;1.85;;;;;;;28.83;20.94;99812.63;10510873;28;20040;-62
2023/06/16 15:18:10;;;;;;;4.22;1.92;;;;;;;29.21;20.39;99806.50;10505462;28;20056;-62
2023/06/16 15:23:12;;;;;;;3.20;1.80;;;;;;;29.26;20.13;99799.41;10507142;28;20442;-62
2023/06/16 15:28:14;;;;;;;2.75;1.48;;;;;;;29.26;20.16;99795.88;10508096;28;20142;-62
2023/06/16 15:33:15;;;;;;;2.88;1.70;;;;;;;29.39;19.67;99790.47;10481690;28;20135;-62
2023/06/16 15:38:17;;;;;;;3.28;1.65;;;;;;;29.25;19.72;99794.25;10508738;28;20419;-62
2023/06/16 15:43:19;;;;;;;4.05;1.90;;;;;;;29.18;19.54;99779.97;10507848;28;20079;-62
2023/06/16 15:48:21;;;;;;;2.90;1.70;;;;;;;29.03;19.66;99791.84;10510094;28;21118;-64
2023/06/16 15:53:23;;;;;;;2.83;1.45;;;;;;;29.19;19.50;99787.84;10510752;28;20500;-65
2023/06/16 15:58:25;;;;;;;3.90;2.00;;;;;;;29.26;19.31;99790.50;10505700;28;20077;-64
2023/06/16 16:03:27;;;;;;;2.92;1.65;;;;;;;29.46;19.58;99788.56;10508297;28;20480;-65
2023/06/16 16:08:29;;;;;;;2.97;1.67;;;;;;;29.70;19.34;99787.78;10505638;28;20043;-65
2023/06/16 16:13:33;;;;;;;3.30;1.88;;;;;;;29.48;19.95;99779.19;10509293;28;20583;-64
2023/06/16 16:18:34;;;;;;;3.45;1.90;;;;;;;29.29;20.20;99782.84;10501028;28;20040;-62
2023/06/16 16:23:36;;;;;;;3.97;1.65;;;;;;;28.92;20.26;99783.63;10507203;28;20245;-62
2023/06/16 16:28:39;;;;;;;2.63;1.60;;;;;;;29.01;20.41;99777.78;10503148;28;20131;-62
2023/06/16 16:33:40;;;;;;;3.30;1.65;;;;;;;29.20;20.44;99783.28;10507250;28;20120;-62
2023/06/16 16:38:43;;;;;;;3.45;1.48;;;;;;;29.22;20.55;99787.41;10505916;28;20063;-62
2023/06/16 16:43:44;;;;;;;2.75;1.70;;;;;;;28.82;20.43;99786.75;10505496;28;20044;-68
2023/06/16 16:48:46;;;;;;;3.28;1.77;;;;;;;28.74;20.09;99786.97;10504264;28;20177;-62
2023/06/16 16:53:48;;;;;;;2.45;1.50;;;;;;;28.45;20.29;99787.47;10506032;28;20128;-64
2023/06/16 16:58:51;;;;;;;4.05;1.80;;;;;;;28.45;20.30;99783.94;10486163;28;20185;-62
2023/06/16 17:03:52;;;;;;;3.95;2.00;;;;;;;28.48;20.45;99795.13;10486276;28;20446;-62
2023/06/16 17:08:54;;;;;;;2.92;1.60;;;;;;;28.24;20.43;99798.41;10504130;28;20138;-67
2023/06/16 17:13:56;;;;;;;2.35;1.60;;;;;;;28.10;20.87;99796.78;10485022;28;20491;-62
2023/06/16 17:18:58;;;;;;;4.28;1.90;;;;;;;28.04;20.77;99797.59;10502226;28;20159;-62
2023/06/16 17:24:00;;;;;;;2.97;1.85;;;;;;;28.07;20.73;99806.13;10504848;28;20610;-62
2023/06/16 17:29:02;;;;;;;3.33;1.80;;;;;;;27.93;20.77;99804.44;10496962;28;20136;-58
2023/06/16 17:34:04;;;;;;;2.95;1.80;;;;;;;27.69;21.14;99802.31;10520755;28;20044;-63
2023/06/16 17:39:06;;;;;;;3.00;1.70;;;;;;;27.44;21.14;99804.75;10499381;28;20419;-62
2023/06/16 17:44:09;;;;;;;4.68;1.63;;;;;;;27.28;21.50;99807.00;10504968;28;20081;-63
2023/06/16 17:49:11;;;;;;;2.90;1.70;;;;;;;27.28;21.50;99802.44;10516612;28;20154;-62
2023/06/16 17:54:13;;;;;;;3.40;1.77;;;;;;;27.18;21.54;99803.84;10504157;28;20082;-62
2023/06/16 17:59:14;;;;;;;3.38;1.90;;;;;;;27.07;21.47;99805.25;10503089;28;20072;-61
2023/06/16 18:04:17;;;;;;;2.85;1.70;;;;;;;26.89;21.22;99804.97;10505515;28;20166;-61
2023/06/16 18:09:18;;;;;;;2.92;1.70;;;;;;;26.62;21.58;99801.31;10509877;28;20462;-61
2023/06/16 18:14:20;;;;;;;2.22;1.45;;;;;;;26.50;21.65;99804.69;10510495;28;20095;-62
2023/06/16 18:19:22;;;;;;;7.47;3.75;;;;;;;26.26;21.67;99808.66;10490562;28;20564;-60
2023/06/16 18:24:26;;;;;;;4.43;2.45;;;;;;;25.94;22.08;99809.19;10513318;28;20052;-61
2023/06/16 18:29:28;;;;;;;3.40;1.90;;;;;;;25.64;22.14;99807.69;10511562;28;20071;-60
2023/06/16 18:34:30;;;;;;;3.50;1.80;;;;;;;25.41;22.77;99809.69;10528231;28;20048;-61
2023/06/16 18:39:33;;;;;;;2.92;1.83;;;;;;;25.23;22.96;99812.75;10512270;28;20048;-61
2023/06/16 18:44:35;;;;;;;4.70;2.10;;;;;;;25.13;23.40;99820.25;10513137;28;20048;-61
2023/06/16 18:49:37;;;;;;;3.13;1.80;;;;;;;25.00;23.78;99809.38;10510615;28;20059;-61
2023/06/16 18:54:39;;;;;;;3.38;1.90;;;;;;;24.74;24.64;99819.75;10511957;28;20491;-61
2023/06/16 18:59:47;;;;;;;4.03;1.90;;;;;;;24.62;25.08;99818.50;10505608;28;20120;-61
2023/06/16 19:04:48;;;;;;;3.20;1.73;;;;;;;24.46;25.27;99816.03;10511962;28;20161;-66
2023/06/16 19:09:51;;;;;;;4.72;1.90;;;;;;;24.26;25.95;99811.22;10505650;28;20063;-66
2023/06/16 19:14:52;;;;;;;5.57;2.58;;;;;;;23.93;26.43;99817.84;10504636;28;20062;-66
2023/06/16 19:19:54;;;;;;;3.10;1.90;;;;;;;23.69;26.74;99817.19;10504070;28;20068;-67
2023/06/16 19:24:56;;;;;;;3.58;1.90;;;;;;;23.40;27.15;99818.72;10491300;28;20456;-66
2023/06/16 19:29:58;;;;;;;3.83;1.90;;;;;;;23.16;27.74;99828.66;10485067;28;20052;-66
2023/06/16 19:35:00;;;;;;;3.38;1.90;;;;;;;22.89;28.10;99829.94;10503603;28;20079;-67
2023/06/16 19:40:06;;;;;;;4.03;2.05;;;;;;;22.58;28.96;99832.50;10500062;28;20063;-66
2023/06/16 19:45:09;;;;;;;3.17;1.80;;;;;;;22.16;29.50;99841.75;10491835;28;20404;-66
2023/06/16 19:50:10;;;;;;;5.00;2.38;;;;;;;21.95;30.02;99849.34;10484555;28;20097;-65
2023/06/16 19:55:12;;;;;;;4.22;2.03;;;;;;;21.79;30.07;99855.50;10510603;28;20208;-67
2023/06/16 20:00:15;;;;;;;3.53;2.00;;;;;;;21.61;30.73;99868.97;10501715;28;20054;-66
2023/06/16 20:05:21;;;;;;;3.95;2.05;;;;;;;21.48;30.94;99873.09;10511464;28;20134;-66
2023/06/16 20:10:24;;;;;;;3.33;2.00;;;;;;;21.31;31.17;99876.69;10503816;28;20048;-66
2023/06/16 20:15:26;;;;;;;3.00;1.90;;;;;;;21.04;31.65;99885.72;10487717;28;20060;-67
2023/06/16 20:20:28;;;;;;;3.00;1.85;;;;;;;20.85;32.00;99884.13;10506931;28;20160;-67
2023/06/16 20:25:30;;;;;;;3.10;1.85;;;;;;;20.55;32.94;99886.38;10505892;28;20826;-67
2023/06/16 20:30:32;;;;;;;4.15;2.30;;;;;;;20.45;33.09;99888.31;10503551;28;20055;-67
2023/06/16 20:35:34;;;;;;;3.47;2.00;;;;;;;20.34;33.63;99892.06;10499933;28;20048;-67
2023/06/16 20:40:38;;;;;;;3.90;2.20;;;;;;;20.02;34.30;99887.31;10501309;28;20052;-66
2023/06/16 20:45:43;;;;;;;8.20;3.13;;;;;;;19.58;34.85;99893.50;10502159;28;20955;-66
2023/06/16 20:50:45;;;;;;;6.90;3.20;;;;;;;19.31;35.23;99897.00;10505410;28;20051;-66
2023/06/16 20:55:47;;;;;;;3.97;2.45;;;;;;;19.53;34.82;99894.91;10486083;28;20549;-66
2023/06/16 21:00:49;;;;;;;3.28;2.05;;;;;;;19.52;35.18;99895.91;10502389;28;20454;-66
2023/06/16 21:05:51;;;;;;;5.43;2.67;;;;;;;19.04;35.65;99904.94;10484442;28;20140;-66
2023/06/16 21:10:53;;;;;;;4.03;2.42;;;;;;;19.00;36.06;99902.69;10502449;28;20047;-66
2023/06/16 21:16:00;;;;;;;4.05;2.35;;;;;;;19.06;36.54;99902.13;10499488;28;20097;-66
2023/06/16 21:21:04;;;;;;;4.80;2.53;;;;;;;18.90;36.76;99900.09;10499418;28;20181;-67
2023/06/16 21:26:06;;;;;;;5.75;2.63;;;;;;;18.69;37.32;99899.44;10484100;28;20475;-66
2023/06/16 21:31:08;;;;;;;4.32;2.28;;;;;;;18.28;38.34;99916.53;10506170;28;20529;-67
2023/06/16 21:36:10;;;;;;;4.60;2.45;;;;;;;17.96;38.59;99931.00;10501642;28;20044;-66
2023/06/16 21:41:12;;;;;;;4.22;2.20;;;;;;;17.99;38.79;99914.84;10506795;28;20109;-66
2023/06/16 21:46:14;;;;;;;3.45;2.25;;;;;;;18.12;38.65;99921.53;10502525;28;20130;-66
2023/06/16 21:51:16;;;;;;;3.83;1.95;;;;;;;18.19;38.71;99919.16;10521630;28;20048;-66
2023/06/16 21:56:18;;;;;;;4.03;2.50;;;;;;;18.20;38.47;99915.59;10482453;28;20128;-66
2023/06/16 22:01:20;;;;;;;4.03;2.30;;;;;;;18.14;38.35;99913.44;10486636;28;20574;-66
2023/06/16 22:06:23;;;;;;;4.70;2.70;;;;;;;17.98;38.64;99921.09;10501385;28;20143;-67
2023/06/16 22:11:25;;;;;;;4.00;2.30;;;;;;;17.89;39.49;99924.59;10503629;28;20048;-67
2023/06/16 22:16:27;;;;;;;4.80;2.55;;;;;;;17.60;39.85;99922.75;10469489;28;20079;-66
2023/06/16 22:21:31;;;;;;;5.68;2.50;;;;;;;17.55;40.30;99924.94;10504424;28;20504;-66
2023/06/16 22:26:34;;;;;;;4.82;2.60;;;;;;;17.46;39.96;99923.13;10502295;28;20101;-67
2023/06/16 22:31:36;;;;;;;4.18;2.30;;;;;;;17.41;40.21;99927.97;10485903;28;20131;-66
2023/06/16 22:36:39;;;;;;;4.82;2.50;;;;;;;16.96;40.84;99932.78;10502270;28;20519;-67
2023/06/16 22:41:41;;;;;;;4.43;2.22;;;;;;;16.90;40.85;99938.59;10506382;28;20143;-66
2023/06/16 22:46:43;;;;;;;3.20;1.90;;;;;;;16.93;41.29;99941.00;10502225;28;20076;-67
2023/06/16 22:51:48;;;;;;;5.88;2.60;;;;;;;16.92;41.31;99935.81;10506362;28;20422;-67
2023/06/16 22:56:50;;;;;;;4.05;2.42;;;;;;;16.86;41.56;99934.53;10510726;28;20555;-66
2023/06/16 23:01:52;;;;;;;3.80;2.10;;;;;;;16.82;41.80;99933.13;10513531;28;20137;-66
2023/06/16 23:06:54;;;;;;;4.45;2.30;;;;;;;16.84;41.72;99935.63;10511571;28;20193;-67
2023/06/16 23:11:56;;;;;;;3.42;1.95;;;;;;;16.72;42.01;99931.41;10510546;28;20487;-66
2023/06/16 23:16:58;;;;;;;5.03;2.03;;;;;;;16.58;41.98;99929.09;10508062;28;20060;-66
2023/06/16 23:22:00;;;;;;;4.40;2.20;;;;;;;16.10;42.78;99934.81;10508551;28;20044;-67